Selma, Ohio
Current Conditions -  °F | °C
As of 5:56 PM on Monday 24 Nov 2014 (Local Time) from KSGH Reporting Station
Broken Clouds Broken Clouds  
Wind Chill: 34°   Ceiling: 3600
Heat Index: 43°   Visibility: 10mi
Dew Point: 33°   Wind: 21mph
Humidity: 68%   Direction: 220°SW
Pressure: 29.74"   Gusts: 31mph
Location:  39.8457°N, 83.6528°W
Report Text: KSGH 242256Z AUTO 22018G27KT 10SM BKN036 06/01 A2974 RMK AO2 T00610005 BKN V OVC PK WND 24032/2208 SLP072 $
Loading
Personal Weather Stations






























Interactive Weather Map New forecast layout! Learn more

10-Day Weather Forecast

Advertisements
Track Severe Weather on mobile